Tiller, Oregon
Current Conditions -  °F | °C
As of 12:53 AM on Sunday 26 Oct 2014 (Local Time) from KRBG Reporting Station
Few Clouds Few Clouds  
Wind Chill: 51°   Ceiling: Unl
Heat Index: 51°   Visibility: 10mi
Dew Point: 44°   Wind: 0mph
Humidity: 77%   Direction: NA
Pressure: 30.07"   Gusts: NA
Location:  42.93°N, 122.95°W
Report Text: KRBG 260753Z AUTO 00000KT 10SM FEW036 FEW090 11/07 A3007 RMK AO2 SLP183 T01060067 401780100 $
Loading
Personal Weather Stations






























Interactive Weather Map
Tropical Storm Tracking
New forecast layout! Learn more

10-Day Weather Forecast

Advertisements
Track Severe Weather on mobile